메인 페이지
METAR-TAF:

METAR-TAF

공항 :

Naval Air Station Whiting Field North

밀튼, 플로리다, 미국

위도: 30-44-00N, 경도: 087-01-00W, 고도: 60m

현재 날씨관측

예보는 13분 전, 01:56시(UTC)에 발표되었습니다.
3kt
온도 26°C
습도 84%
기압 1019 hPa
시정: 16.1km
고도 5000ft 상공 구름 조금

METAR: KNSE 250156Z 19003KT 10SM FEW050 26/23 A3009 RMK AO2 SLP172 T02560228 $

시각: 21:09 (02:09 UTC)

예보

예보 대상 시간: 24일 23시부터 25일 23시까지 (UTC)
7kt
시정 10km 이상
고도 5000ft 상공 구름 조금
25일 0600시부터 (UTC)
여러 방향의 바람 3kt
시정 10km 이상
맑음
일시적
25일 09시부터 25일 13시까지 (UTC)
시정: 8000m
박무
25일 1300시부터 (UTC)
여러 방향의 바람 5kt
시정 10km 이상
고도 3500ft 상공 구름 조금
25일 1900시부터 (UTC)
7kt
시정: 2811m
고도 5000ft 상공 구름 조금

TAF: KNSE 2423/2523 18007KT 9999 FEW050 QNH3006INS FM250600 VRB03KT 9999 SKC QNH3004INS TEMPO 2509/2513 8000 BR FM251300 VRB05KT 9999 FEW035 QNH3008INS FM251900 18007KT 9999 FEW050 QNH3004INS AUTOMATED SENSOR METWATCH 2504 TIL 2811 T21/2511Z T32/2520Z FN20030

4,000개 이상의 공항 관측 자료 및 예보 (METAR 및 TAF 보고).

지도상에서 검색 가능한 기상관측소가 노란 점과 빨간 점으로 표시되어 있습니다.

기상관측소 명을 보려면 표시 위로 마우스를 이동하세요.

날씨 관측과 예보를 보려면 클릭하세요.

지도 변경 : 확대하려면 엑스 표시가 있는 녹색 버튼, 축소하려면 빼기 표시가 있는 녹색 버튼, 다음 페이지의 지도를 보려면 녹색 화살표를 클릭하세요.


METAR-TAF: